Time;durP1;ratioP1;P1;durP2;ratioP2;P2;SDS_P1;SDS_P2;PMS_P1;PMS_P2;Temp;Humidity;BMP_temperature;BMP_pressure;BME280_temperature;BME280_humidity;BME280_pressure;Samples;Min_cycle;Max_cycle;Signal;HPM_P1;HPM_P2
2022/09/28 00:00:05;;;;;;;5.05;2.90;;;;;;;;;;12990858;22;20015;-83
2022/09/28 00:05:13;;;;;;;3.25;2.40;;;;;;;;;;12992244;22;20107;-82
2022/09/28 00:10:16;;;;;;;3.55;2.05;;;;;;;;;;12997250;22;20011;-83
2022/09/28 00:15:18;;;;;;;4.55;2.40;;;;;;;;;;13004260;22;20774;-85
2022/09/28 00:20:21;;;;;;;2.53;1.80;;;;;;;;;;13001425;22;20443;-84
2022/09/28 00:25:23;;;;;;;3.83;2.17;;;;;;;;;;13001131;22;20269;-82
2022/09/28 00:30:25;;;;;;;2.70;2.03;;;;;;;;;;12994129;22;20012;-84
2022/09/28 00:35:26;;;;;;;2.50;2.20;;;;;;;;;;13018331;22;20008;-81
2022/09/28 00:40:28;;;;;;;3.10;2.23;;;;;;;;;;13028667;22;20234;-83
2022/09/28 00:45:28;;;;;;;3.70;2.10;;;;;;;;;;13011147;22;20258;-81
2022/09/28 00:50:32;;;;;;;3.40;2.40;;;;;;;;;;12988037;22;20047;-80
2022/09/28 00:55:38;;;;;;;2.88;2.33;;;;;;;;;;12987389;22;20094;-81
2022/09/28 01:00:39;;;;;;;4.80;2.58;;;;;;;;;;12987120;22;20004;-81
2022/09/28 01:05:40;;;;;;;4.07;2.45;;;;;;;;;;12983658;22;20605;-81
2022/09/28 01:10:42;;;;;;;4.30;2.25;;;;;;;;;;12982299;22;20024;-82
2022/09/28 01:15:50;;;;;;;3.85;2.28;;;;;;;;;;12991383;22;20066;-80
2022/09/28 01:20:57;;;;;;;4.45;2.28;;;;;;;;;;12966356;22;20039;-80
2022/09/28 01:26:17;;;;;;;4.53;2.22;;;;;;;;;;12981932;22;20076;-79
2022/09/28 01:31:18;;;;;;;1.90;1.73;;;;;;;;;;12981810;22;20020;-81
2022/09/28 01:36:33;;;;;;;2.20;1.98;;;;;;;;;;12979929;22;20004;-81
2022/09/28 01:41:37;;;;;;;2.50;1.83;;;;;;;;;;12979794;22;20015;-80
2022/09/28 01:46:43;;;;;;;2.83;2.10;;;;;;;;;;12982687;22;20039;-81
2022/09/28 01:51:56;;;;;;;2.53;1.88;;;;;;;;;;12983286;22;20022;-83
2022/09/28 01:57:09;;;;;;;2.10;1.30;;;;;;;;;;12983726;22;20028;-80
2022/09/28 02:02:21;;;;;;;3.25;1.85;;;;;;;;;;12983693;22;20390;-82
2022/09/28 02:07:27;;;;;;;1.60;1.30;;;;;;;;;;12988295;22;20022;-82
2022/09/28 02:12:57;;;;;;;3.00;1.75;;;;;;;;;;12980105;22;20073;-81
2022/09/28 02:17:57;;;;;;;2.10;1.60;;;;;;;;;;12954216;22;20023;-78
2022/09/28 02:22:58;;;;;;;1.58;1.38;;;;;;;;;;12984392;22;20450;-81
2022/09/28 02:27:59;;;;;;;2.28;1.50;;;;;;;;;;12986250;22;20008;-84
2022/09/28 02:33:04;;;;;;;1.88;1.40;;;;;;;;;;12980055;22;20015;-83
2022/09/28 02:38:06;;;;;;;2.92;1.42;;;;;;;;;;12979952;22;20382;-82
2022/09/28 02:43:25;;;;;;;1.55;1.40;;;;;;;;;;12984559;22;20015;-80
2022/09/28 02:48:45;;;;;;;2.92;1.50;;;;;;;;;;12988759;22;20023;-82
2022/09/28 02:53:48;;;;;;;2.72;1.75;;;;;;;;;;12985401;22;20106;-81
2022/09/28 02:58:58;;;;;;;4.85;1.90;;;;;;;;;;12986616;22;20344;-81
2022/09/28 03:03:59;;;;;;;2.88;1.95;;;;;;;;;;12992042;22;20031;-81
2022/09/28 03:09:03;;;;;;;3.67;1.88;;;;;;;;;;13009041;22;20019;-81
2022/09/28 03:14:07;;;;;;;1.73;1.40;;;;;;;;;;12990635;22;20037;-79
2022/09/28 03:19:20;;;;;;;2.55;1.90;;;;;;;;;;12982270;22;20015;-79
2022/09/28 03:24:20;;;;;;;2.90;1.90;;;;;;;;;;12980633;22;20066;-82
2022/09/28 03:29:21;;;;;;;3.25;1.70;;;;;;;;;;12976842;22;20415;-82
2022/09/28 03:34:27;;;;;;;3.72;2.03;;;;;;;;;;12997198;22;20054;-79
2022/09/28 03:39:28;;;;;;;2.80;1.63;;;;;;;;;;13021046;22;20023;-81
2022/09/28 03:44:29;;;;;;;3.50;1.58;;;;;;;;;;13026226;22;20016;-82
2022/09/28 03:49:29;;;;;;;3.67;1.63;;;;;;;;;;12955662;22;20016;-83
2022/09/28 03:54:30;;;;;;;3.53;1.88;;;;;;;;;;12953862;22;20567;-78
2022/09/28 03:59:30;;;;;;;2.70;1.77;;;;;;;;;;12949136;22;20023;-78
2022/09/28 04:04:31;;;;;;;5.68;2.17;;;;;;;;;;12924642;22;20274;-80
2022/09/28 04:09:31;;;;;;;3.28;2.08;;;;;;;;;;12949769;22;20083;-79
2022/09/28 04:14:31;;;;;;;3.08;1.95;;;;;;;;;;12950083;22;20078;-78
2022/09/28 04:19:32;;;;;;;4.30;2.50;;;;;;;;;;12923823;22;20020;-80
2022/09/28 04:24:48;;;;;;;2.80;2.30;;;;;;;;;;12949464;22;20012;-78
2022/09/28 04:29:48;;;;;;;3.25;2.40;;;;;;;;;;12977823;22;20549;-79
2022/09/28 04:34:50;;;;;;;3.72;2.10;;;;;;;;;;12952971;22;20050;-80
2022/09/28 04:39:51;;;;;;;4.10;2.85;;;;;;;;;;12951747;22;20082;-78
2022/09/28 04:44:53;;;;;;;4.60;3.20;;;;;;;;;;12971715;22;20016;-80
2022/09/28 04:49:53;;;;;;;3.92;3.03;;;;;;;;;;12931860;22;20019;-79
2022/09/28 04:54:59;;;;;;;3.80;2.42;;;;;;;;;;12982163;22;20368;-80
2022/09/28 05:00:00;;;;;;;5.45;2.90;;;;;;;;;;12952929;22;20023;-78
2022/09/28 05:05:01;;;;;;;3.60;2.30;;;;;;;;;;12929988;22;20015;-79
2022/09/28 05:10:30;;;;;;;3.33;2.03;;;;;;;;;;12892506;23;20098;-78
2022/09/28 05:15:32;;;;;;;4.05;2.47;;;;;;;;;;12911944;23;20046;-78
2022/09/28 05:20:39;;;;;;;4.00;2.97;;;;;;;;;;12913031;23;20020;-79
2022/09/28 05:25:40;;;;;;;5.32;2.65;;;;;;;;;;12911166;23;20023;-78
2022/09/28 05:30:51;;;;;;;3.33;2.47;;;;;;;;;;12892433;23;20024;-83
2022/09/28 05:36:03;;;;;;;3.57;2.53;;;;;;;;;;12895051;23;20047;-78
2022/09/28 05:41:05;;;;;;;5.70;3.17;;;;;;;;;;12972576;22;20012;-82
2022/09/28 05:46:05;;;;;;;5.75;2.83;;;;;;;;;;13035794;22;20211;-81
2022/09/28 05:51:09;;;;;;;5.47;3.70;;;;;;;;;;13007746;22;20008;-83
2022/09/28 05:56:10;;;;;;;4.38;3.33;;;;;;;;;;13011565;22;20024;-81
2022/09/28 06:01:15;;;;;;;5.05;3.92;;;;;;;;;;12999596;22;20031;-83
2022/09/28 06:06:16;;;;;;;6.53;3.80;;;;;;;;;;12958676;22;20015;-82
2022/09/28 06:11:19;;;;;;;5.93;3.97;;;;;;;;;;12949367;22;20024;-85
2022/09/28 06:16:21;;;;;;;6.05;3.80;;;;;;;;;;12965659;22;20024;-80
2022/09/28 06:21:25;;;;;;;5.03;3.50;;;;;;;;;;12960239;22;20016;-82
2022/09/28 06:26:26;;;;;;;7.18;3.70;;;;;;;;;;12984290;22;20015;-80
2022/09/28 06:31:32;;;;;;;4.03;3.28;;;;;;;;;;12965961;22;20030;-81
2022/09/28 06:36:33;;;;;;;3.97;2.97;;;;;;;;;;13024995;22;20016;-80
2022/09/28 06:41:36;;;;;;;;;;;;;;;;;;12984128;22;20023;-79
2022/09/28 06:46:46;;;;;;;3.17;2.40;;;;;;;;;;12972099;22;20294;-80
2022/09/28 06:51:58;;;;;;;2.95;1.90;;;;;;;;;;12981092;22;20435;-81
2022/09/28 06:57:18;;;;;;;2.83;1.80;;;;;;;;;;12977588;22;20447;-79
2022/09/28 07:02:19;;;;;;;2.22;1.80;;;;;;;;;;12926941;22;20051;-78
2022/09/28 07:07:46;;;;;;;1.83;1.30;;;;;;;;;;12943493;22;20016;-79
2022/09/28 07:13:15;;;;;;;3.03;1.50;;;;;;;;;;12978474;22;20031;-78
2022/09/28 07:18:22;;;;;;;2.65;1.98;;;;;;;;;;12950501;22;20082;-80
2022/09/28 07:23:26;;;;;;;3.63;2.03;;;;;;;;;;12950690;22;20071;-79
2022/09/28 07:28:54;;;;;;;2.88;2.00;;;;;;;;;;12783031;23;20167;-80
2022/09/28 07:34:08;;;;;;;4.50;3.08;;;;;;;;;;12958691;22;20090;-81
2022/09/28 07:39:27;;;;;;;2.20;1.45;;;;;;;;;;12930259;22;20027;-79
2022/09/28 07:44:28;;;;;;;3.60;2.10;;;;;;;;;;12937831;22;20391;-78
2022/09/28 07:49:29;;;;;;;3.47;1.70;;;;;;;;;;12953148;22;20075;-80
2022/09/28 07:55:01;;;;;;;2.35;1.35;;;;;;;;;;12962086;22;20024;-83
2022/09/28 08:00:21;;;;;;;1.40;1.30;;;;;;;;;;12958648;22;20340;-80
2022/09/28 08:05:23;;;;;;;1.73;1.38;;;;;;;;;;12954776;22;20119;-81
2022/09/28 08:10:24;;;;;;;1.67;1.42;;;;;;;;;;12947850;22;20015;-81
2022/09/28 08:15:37;;;;;;;1.27;1.00;;;;;;;;;;12982061;22;20607;-80
2022/09/28 08:26:13;;;;;;;1.43;1.00;;;;;;;;;;12998657;22;20086;-81
2022/09/28 08:31:14;;;;;;;1.20;1.10;;;;;;;;;;12986541;22;20020;-83
2022/09/28 08:36:33;;;;;;;1.65;1.40;;;;;;;;;;12989730;22;20344;-82
2022/09/28 08:41:49;;;;;;;1.52;1.20;;;;;;;;;;12985938;22;20106;-82
2022/09/28 08:48:42;;;;;;;2.20;1.45;;;;;;;;;;12963650;22;20023;-82
2022/09/28 08:52:56;;;;;;;1.40;1.23;;;;;;;;;;12982032;22;20023;-81
2022/09/28 08:58:22;;;;;;;3.75;1.60;;;;;;;;;;12955242;22;20047;-83
2022/09/28 09:03:29;;;;;;;2.72;1.23;;;;;;;;;;12981869;22;20018;-82
2022/09/28 09:09:03;;;;;;;1.95;1.63;;;;;;;;;;12944370;22;20412;-82
2022/09/28 09:14:17;;;;;;;2.10;1.50;;;;;;;;;;12959103;22;20095;-84
2022/09/28 09:19:34;;;;;;;1.70;1.50;;;;;;;;;;12963340;22;20012;-82
2022/09/28 09:25:19;;;;;;;4.68;3.78;;;;;;;;;;12979102;22;20332;-79
2022/09/28 09:30:25;;;;;;;3.45;1.65;;;;;;;;;;12977008;22;20075;-83
2022/09/28 09:35:48;;;;;;;1.35;1.25;;;;;;;;;;12957566;22;20035;-83
2022/09/28 09:41:17;;;;;;;2.08;1.80;;;;;;;;;;12995557;22;20028;-83
2022/09/28 09:46:50;;;;;;;2.20;1.30;;;;;;;;;;12879585;23;20023;-82
2022/09/28 09:52:14;;;;;;;1.95;1.40;;;;;;;;;;13019418;22;20034;-82
2022/09/28 09:57:39;;;;;;;1.67;1.20;;;;;;;;;;13081499;22;20011;-80
2022/09/28 10:02:49;;;;;;;3.03;1.70;;;;;;;;;;13028422;22;20015;-81
2022/09/28 10:08:06;;;;;;;2.33;1.35;;;;;;;;;;13010566;22;20011;-81
2022/09/28 10:13:09;;;;;;;3.42;1.30;;;;;;;;;;13039444;22;20034;-81
2022/09/28 10:18:12;;;;;;;3.67;2.83;;;;;;;;;;13014389;22;20649;-82
2022/09/28 10:23:33;;;;;;;1.45;1.30;;;;;;;;;;13047100;22;20122;-82
2022/09/28 10:28:50;;;;;;;1.40;1.30;;;;;;;;;;13070254;22;20031;-80
2022/09/28 10:33:52;;;;;;;2.13;1.50;;;;;;;;;;13049653;22;20023;-79
2022/09/28 10:38:54;;;;;;;1.10;1.00;;;;;;;;;;13027812;22;20022;-82
2022/09/28 10:44:05;;;;;;;4.32;1.35;;;;;;;;;;13073662;22;20043;-82
2022/09/28 10:49:20;;;;;;;1.73;1.17;;;;;;;;;;13072615;22;20058;-79
2022/09/28 10:54:29;;;;;;;1.77;1.30;;;;;;;;;;13011132;22;20034;-80
2022/09/28 10:59:31;;;;;;;;;;;;;;;;;;13034703;22;20446;-79
2022/09/28 11:04:56;;;;;;;1.02;0.82;;;;;;;;;;13020206;22;20126;-82
2022/09/28 11:10:03;;;;;;;2.60;2.28;;;;;;;;;;13040440;22;20023;-80
2022/09/28 11:15:17;;;;;;;1.60;0.90;;;;;;;;;;13038797;22;20019;-78
2022/09/28 11:20:24;;;;;;;1.20;1.10;;;;;;;;;;13017157;22;20138;-79
2022/09/28 11:25:26;;;;;;;1.42;0.90;;;;;;;;;;13021492;22;20022;-81
2022/09/28 11:30:39;;;;;;;2.33;1.43;;;;;;;;;;13047139;22;20080;-79
2022/09/28 11:36:17;;;;;;;2.47;1.20;;;;;;;;;;13017062;22;20545;-80
2022/09/28 11:41:27;;;;;;;2.00;1.33;;;;;;;;;;13046247;22;20014;-78
2022/09/28 11:46:35;;;;;;;2.53;1.40;;;;;;;;;;13005493;22;20110;-78
2022/09/28 11:51:41;;;;;;;;;;;;;;;;;;13016014;22;20421;-78
2022/09/28 11:56:44;;;;;;;3.42;1.40;;;;;;;;;;13010290;22;19910;-79
2022/09/28 12:01:50;;;;;;;2.97;1.80;;;;;;;;;;13046049;22;20328;-80
2022/09/28 12:06:57;;;;;;;1.45;1.00;;;;;;;;;;13014820;22;20011;-79
2022/09/28 12:12:06;;;;;;;7.15;4.22;;;;;;;;;;13029146;22;20015;-77
2022/09/28 12:17:37;;;;;;;2.40;1.00;;;;;;;;;;13016183;22;20601;-78
2022/09/28 12:22:43;;;;;;;1.88;1.10;;;;;;;;;;13044279;22;19999;-78
2022/09/28 12:27:50;;;;;;;1.38;0.90;;;;;;;;;;13025605;22;20030;-78
2022/09/28 12:32:58;;;;;;;2.65;1.23;;;;;;;;;;13040443;22;20141;-79
2022/09/28 12:38:08;;;;;;;1.17;0.98;;;;;;;;;;13038353;22;20019;-79
2022/09/28 12:43:08;;;;;;;2.65;1.20;;;;;;;;;;13052560;22;20053;-75
2022/09/28 12:48:34;;;;;;;1.17;0.85;;;;;;;;;;13040782;22;20423;-76
2022/09/28 12:53:44;;;;;;;1.45;0.80;;;;;;;;;;13014927;22;20038;-76
2022/09/28 12:58:59;;;;;;;2.17;0.98;;;;;;;;;;13043621;22;20018;-79
2022/09/28 13:04:12;;;;;;;1.23;0.88;;;;;;;;;;13046040;22;20035;-77
2022/09/28 13:09:15;;;;;;;1.67;0.77;;;;;;;;;;13089263;22;20023;-78
2022/09/28 13:14:21;;;;;;;3.45;0.90;;;;;;;;;;13094898;22;20026;-77
2022/09/28 13:19:41;;;;;;;1.23;0.82;;;;;;;;;;13091933;22;20019;-77
2022/09/28 13:24:44;;;;;;;1.92;0.90;;;;;;;;;;13094751;22;20019;-77
2022/09/28 13:29:48;;;;;;;1.17;0.90;;;;;;;;;;13098284;22;19999;-77
2022/09/28 13:34:49;;;;;;;1.30;0.90;;;;;;;;;;13094829;22;20027;-78
2022/09/28 13:39:55;;;;;;;2.15;0.95;;;;;;;;;;13053921;22;20011;-76
2022/09/28 13:45:11;;;;;;;1.52;1.02;;;;;;;;;;13026918;22;20076;-80
2022/09/28 13:50:38;;;;;;;1.38;0.90;;;;;;;;;;13049449;22;20084;-81
2022/09/28 13:55:53;;;;;;;1.30;0.90;;;;;;;;;;13043979;22;20455;-80
2022/09/28 14:01:06;;;;;;;2.70;1.75;;;;;;;;;;13045263;22;20431;-78
2022/09/28 14:06:24;;;;;;;3.63;2.00;;;;;;;;;;13044049;22;20018;-79
2022/09/28 14:11:29;;;;;;;1.38;1.00;;;;;;;;;;13048728;22;20043;-77
2022/09/28 14:16:32;;;;;;;2.97;1.40;;;;;;;;;;13046557;22;20347;-80
2022/09/28 14:21:33;;;;;;;2.30;1.33;;;;;;;;;;13045244;22;20510;-81
2022/09/28 14:26:40;;;;;;;4.13;1.27;;;;;;;;;;13011027;22;20011;-81
2022/09/28 14:31:42;;;;;;;2.33;1.92;;;;;;;;;;13015993;22;20027;-80
2022/09/28 14:42:11;;;;;;;2.90;1.38;;;;;;;;;;13043290;22;20039;-79
2022/09/28 14:47:34;;;;;;;3.03;1.10;;;;;;;;;;13016186;22;20011;-79
2022/09/28 14:52:44;;;;;;;2.60;1.40;;;;;;;;;;13044338;22;20007;-80
2022/09/28 14:57:52;;;;;;;1.00;0.88;;;;;;;;;;13045753;22;20453;-81
2022/09/28 15:02:58;;;;;;;2.13;1.20;;;;;;;;;;13043906;22;20015;-79
2022/09/28 15:08:00;;;;;;;13.95;5.80;;;;;;;;;;13042355;22;20019;-78
2022/09/28 15:13:13;;;;;;;4.78;3.05;;;;;;;;;;13016640;22;20076;-80
2022/09/28 15:18:15;;;;;;;2.80;1.52;;;;;;;;;;13044186;22;20053;-80
2022/09/28 15:23:31;;;;;;;1.60;0.95;;;;;;;;;;13043706;22;20576;-80
2022/09/28 15:28:32;;;;;;;0.80;0.60;;;;;;;;;;13044173;22;20003;-80
2022/09/28 15:38:59;;;;;;;4.15;1.05;;;;;;;;;;13016082;22;20019;-79
2022/09/28 15:44:21;;;;;;;1.80;1.00;;;;;;;;;;13080029;22;19995;-79
2022/09/28 15:49:34;;;;;;;2.80;0.90;;;;;;;;;;13088493;22;20011;-79
2022/09/28 15:54:43;;;;;;;1.95;1.30;;;;;;;;;;13109593;22;20023;-78
2022/09/28 15:59:52;;;;;;;3.78;1.48;;;;;;;;;;13082567;22;20015;-79
2022/09/28 16:04:59;;;;;;;3.25;1.60;;;;;;;;;;13027052;22;20011;-78
2022/09/28 16:10:01;;;;;;;1.42;1.10;;;;;;;;;;13041440;22;20003;-80
2022/09/28 16:15:05;;;;;;;3.83;1.17;;;;;;;;;;13038183;22;20450;-80
2022/09/28 16:20:30;;;;;;;2.33;1.38;;;;;;;;;;13040988;22;20112;-82
2022/09/28 16:25:37;;;;;;;2.05;1.10;;;;;;;;;;13039361;22;20095;-82
2022/09/28 16:30:58;;;;;;;2.22;1.17;;;;;;;;;;13034207;22;20065;-80
2022/09/28 16:36:01;;;;;;;2.08;1.00;;;;;;;;;;13013995;22;20065;-80
2022/09/28 16:41:01;;;;;;;1.63;1.20;;;;;;;;;;13020720;22;20034;-82
2022/09/28 16:46:05;;;;;;;3.17;1.27;;;;;;;;;;13044915;22;20015;-80
2022/09/28 16:51:05;;;;;;;1.65;1.30;;;;;;;;;;13042462;22;20079;-79
2022/09/28 16:56:07;;;;;;;3.15;1.30;;;;;;;;;;13042666;22;20011;-81
2022/09/28 17:01:09;;;;;;;1.67;1.55;;;;;;;;;;13044315;22;20014;-79
2022/09/28 17:06:10;;;;;;;3.63;2.10;;;;;;;;;;13046215;22;20082;-79
2022/09/28 17:11:13;;;;;;;2.90;1.63;;;;;;;;;;13005018;22;20015;-79
2022/09/28 17:16:18;;;;;;;2.58;1.90;;;;;;;;;;12994283;22;20027;-80
2022/09/28 17:21:19;;;;;;;2.45;1.70;;;;;;;;;;13046452;22;20015;-80
2022/09/28 17:26:26;;;;;;;2.30;1.60;;;;;;;;;;12993871;22;20015;-82
2022/09/28 17:31:29;;;;;;;2.30;1.48;;;;;;;;;;13019161;22;20297;-81
2022/09/28 17:36:30;;;;;;;3.17;1.70;;;;;;;;;;13052912;22;20004;-81
2022/09/28 17:41:31;;;;;;;4.70;2.17;;;;;;;;;;13011499;22;20537;-83
2022/09/28 17:46:35;;;;;;;4.75;3.78;;;;;;;;;;13102205;22;20012;-80
2022/09/28 17:51:39;;;;;;;4.18;2.58;;;;;;;;;;13103429;22;20014;-82
2022/09/28 17:56:41;;;;;;;4.00;2.30;;;;;;;;;;13082159;22;20023;-81
2022/09/28 18:01:43;;;;;;;2.97;2.22;;;;;;;;;;13026960;22;20023;-78
2022/09/28 18:06:43;;;;;;;3.08;2.38;;;;;;;;;;13066406;22;20018;-77
2022/09/28 18:11:46;;;;;;;5.78;3.95;;;;;;;;;;13075582;22;20025;-81
2022/09/28 18:16:47;;;;;;;4.13;3.70;;;;;;;;;;13108900;22;20033;-81
2022/09/28 18:21:47;;;;;;;4.55;3.53;;;;;;;;;;13083357;22;19999;-78
2022/09/28 18:26:50;;;;;;;5.60;4.38;;;;;;;;;;13106556;22;20006;-80
2022/09/28 18:31:52;;;;;;;6.30;4.67;;;;;;;;;;13083166;22;20002;-80
2022/09/28 18:36:53;;;;;;;8.40;5.70;;;;;;;;;;13094060;22;20011;-79
2022/09/28 18:41:54;;;;;;;6.97;5.30;;;;;;;;;;13067241;22;20038;-78
2022/09/28 18:46:54;;;;;;;6.97;4.90;;;;;;;;;;13083623;22;20019;-79
2022/09/28 18:51:56;;;;;;;8.48;5.50;;;;;;;;;;13062427;22;20019;-82
2022/09/28 18:57:00;;;;;;;8.57;5.28;;;;;;;;;;13047384;22;20019;-80
2022/09/28 19:02:01;;;;;;;7.32;5.00;;;;;;;;;;13018062;22;20011;-80
2022/09/28 19:07:06;;;;;;;7.70;5.50;;;;;;;;;;13043527;22;20358;-79
2022/09/28 19:12:07;;;;;;;9.15;6.28;;;;;;;;;;13019583;22;20080;-81
2022/09/28 19:17:07;;;;;;;10.57;6.65;;;;;;;;;;13047258;22;20019;-80
2022/09/28 19:22:08;;;;;;;8.70;6.40;;;;;;;;;;13019213;22;20090;-80
2022/09/28 19:27:08;;;;;;;9.65;6.45;;;;;;;;;;13047210;22;20007;-80
2022/09/28 19:32:11;;;;;;;9.27;5.93;;;;;;;;;;13046972;22;20023;-78
2022/09/28 19:37:13;;;;;;;9.97;6.77;;;;;;;;;;13065393;22;20015;-79
2022/09/28 19:42:14;;;;;;;8.25;6.57;;;;;;;;;;13045707;22;20371;-79
2022/09/28 19:47:18;;;;;;;7.85;6.55;;;;;;;;;;13044844;22;20102;-80
2022/09/28 19:52:20;;;;;;;9.63;6.47;;;;;;;;;;13043638;22;20039;-79
2022/09/28 19:57:23;;;;;;;8.45;6.30;;;;;;;;;;13042603;22;20102;-79
2022/09/28 20:02:24;;;;;;;7.18;5.72;;;;;;;;;;13044040;22;20712;-78
2022/09/28 20:07:26;;;;;;;6.40;5.80;;;;;;;;;;13047128;22;20354;-79
2022/09/28 20:12:27;;;;;;;6.47;5.55;;;;;;;;;;13019521;22;20053;-78
2022/09/28 20:17:27;;;;;;;7.17;6.47;;;;;;;;;;13061641;22;20011;-77
2022/09/28 20:22:29;;;;;;;7.57;6.03;;;;;;;;;;13080969;22;20063;-79
2022/09/28 20:27:30;;;;;;;9.32;7.22;;;;;;;;;;13047697;22;20582;-79
2022/09/28 20:32:33;;;;;;;10.15;7.70;;;;;;;;;;13014488;22;20073;-80
2022/09/28 20:37:35;;;;;;;8.05;6.82;;;;;;;;;;13061563;22;20015;-80
2022/09/28 20:42:36;;;;;;;7.30;6.10;;;;;;;;;;13028199;22;20323;-79
2022/09/28 20:47:36;;;;;;;8.68;6.65;;;;;;;;;;13050069;22;20039;-79
2022/09/28 20:52:37;;;;;;;8.23;6.22;;;;;;;;;;13051519;22;20100;-78
2022/09/28 20:57:38;;;;;;;8.43;6.03;;;;;;;;;;13054781;22;20011;-79
2022/09/28 21:02:38;;;;;;;7.65;6.60;;;;;;;;;;12994556;22;20330;-81
2022/09/28 21:07:40;;;;;;;8.10;6.05;;;;;;;;;;13050756;22;20078;-81
2022/09/28 21:12:41;;;;;;;9.60;6.70;;;;;;;;;;13067361;22;20184;-80
2022/09/28 21:17:42;;;;;;;8.35;6.55;;;;;;;;;;13021722;22;20458;-78
2022/09/28 21:22:42;;;;;;;7.43;6.15;;;;;;;;;;13050925;22;20015;-78
2022/09/28 21:27:44;;;;;;;9.20;7.20;;;;;;;;;;13054865;22;20018;-77
2022/09/28 21:32:45;;;;;;;7.70;6.82;;;;;;;;;;13053726;22;20030;-81
2022/09/28 21:37:45;;;;;;;9.90;6.75;;;;;;;;;;12990820;22;20011;-81
2022/09/28 21:42:47;;;;;;;8.50;6.65;;;;;;;;;;12998829;22;20015;-82
2022/09/28 21:47:52;;;;;;;6.95;5.97;;;;;;;;;;13050102;22;20011;-82
2022/09/28 21:52:53;;;;;;;6.45;5.35;;;;;;;;;;13050889;22;20034;-80
2022/09/28 21:57:54;;;;;;;7.05;6.30;;;;;;;;;;12997239;22;20020;-81
2022/09/28 22:02:56;;;;;;;8.68;6.97;;;;;;;;;;13049894;22;20498;-82
2022/09/28 22:08:07;;;;;;;8.25;6.25;;;;;;;;;;13048513;22;20025;-84
2022/09/28 22:13:09;;;;;;;7.90;6.22;;;;;;;;;;13024279;22;20023;-83
2022/09/28 22:18:13;;;;;;;9.32;6.40;;;;;;;;;;13053728;22;20026;-83
2022/09/28 22:23:15;;;;;;;6.53;5.70;;;;;;;;;;13049261;22;20011;-83
2022/09/28 22:28:18;;;;;;;6.68;4.90;;;;;;;;;;13021983;22;20019;-83
2022/09/28 22:33:20;;;;;;;;;;;;;;;;;;12981681;22;20066;-81
2022/09/28 22:38:21;;;;;;;6.68;5.38;;;;;;;;;;12921611;23;20319;-82
2022/09/28 22:43:25;;;;;;;6.97;4.93;;;;;;;;;;12919404;23;20018;-81
2022/09/28 22:48:26;;;;;;;9.05;5.00;;;;;;;;;;12883662;23;20027;-81
2022/09/28 22:53:27;;;;;;;7.72;5.40;;;;;;;;;;12924955;22;20028;-83
2022/09/28 22:58:28;;;;;;;7.30;4.90;;;;;;;;;;12899622;22;20032;-81
2022/09/28 23:03:30;;;;;;;7.70;4.70;;;;;;;;;;12864407;23;20318;-81
2022/09/28 23:08:31;;;;;;;5.88;5.07;;;;;;;;;;12888683;23;20022;-80
2022/09/28 23:13:32;;;;;;;10.82;5.60;;;;;;;;;;12892480;23;20020;-79
2022/09/28 23:18:37;;;;;;;8.60;6.18;;;;;;;;;;12946917;22;20027;-80
2022/09/28 23:23:40;;;;;;;7.28;6.43;;;;;;;;;;13012398;22;20060;-81
2022/09/28 23:28:42;;;;;;;6.30;5.70;;;;;;;;;;13010593;22;20011;-79
2022/09/28 23:33:46;;;;;;;6.88;5.93;;;;;;;;;;13015848;22;20003;-82
2022/09/28 23:38:47;;;;;;;8.05;5.93;;;;;;;;;;13038813;22;20023;-78
2022/09/28 23:43:48;;;;;;;7.82;5.78;;;;;;;;;;13043822;22;19992;-81
2022/09/28 23:48:49;;;;;;;8.65;6.72;;;;;;;;;;13013974;22;20012;-80
2022/09/28 23:53:51;;;;;;;8.48;6.05;;;;;;;;;;12980966;22;20115;-80
2022/09/28 23:58:51;;;;;;;8.70;7.32;;;;;;;;;;12928876;22;20012;-80
